sensor_id;sensor_type;location;lat;lon;timestamp;pressure;altitude;pressure_sealevel;temperature;humidity
4410;BME280;2218;51.408;7.208;2022-12-13T00:01:22;99308.16;;;17.96;29.12
4410;BME280;2218;51.408;7.208;2022-12-13T00:03:52;99302.16;;;17.94;28.97
4410;BME280;2218;51.408;7.208;2022-12-13T00:06:19;99294.25;;;17.94;28.92
4410;BME280;2218;51.408;7.208;2022-12-13T00:08:46;99301.31;;;17.93;28.69
4410;BME280;2218;51.408;7.208;2022-12-13T00:11:15;99300.47;;;17.93;28.77
4410;BME280;2218;51.408;7.208;2022-12-13T00:13:43;99298.81;;;17.92;29.03
4410;BME280;2218;51.408;7.208;2022-12-13T00:16:18;99300.69;;;17.90;29.03
4410;BME280;2218;51.408;7.208;2022-12-13T00:18:47;99293.75;;;17.89;29.00
4410;BME280;2218;51.408;7.208;2022-12-13T00:21:18;99297.34;;;17.88;29.00
4410;BME280;2218;51.408;7.208;2022-12-13T00:23:46;99287.78;;;17.87;29.05
4410;BME280;2218;51.408;7.208;2022-12-13T00:26:17;99287.84;;;17.85;29.15
4410;BME280;2218;51.408;7.208;2022-12-13T00:28:45;99288.72;;;17.86;29.13
4410;BME280;2218;51.408;7.208;2022-12-13T00:31:14;99280.09;;;17.83;28.97
4410;BME280;2218;51.408;7.208;2022-12-13T00:33:41;99281.03;;;17.82;28.80
4410;BME280;2218;51.408;7.208;2022-12-13T00:36:08;99280.31;;;17.80;29.06
4410;BME280;2218;51.408;7.208;2022-12-13T00:38:36;99281.16;;;17.81;28.88
4410;BME280;2218;51.408;7.208;2022-12-13T00:41:13;99274.31;;;17.78;29.16
4410;BME280;2218;51.408;7.208;2022-12-13T00:43:42;99280.53;;;17.77;28.76
4410;BME280;2218;51.408;7.208;2022-12-13T00:46:14;99272.75;;;17.76;29.36
4410;BME280;2218;51.408;7.208;2022-12-13T00:48:43;99276.22;;;17.76;28.95
4410;BME280;2218;51.408;7.208;2022-12-13T00:51:11;99272.75;;;17.76;29.17
4410;BME280;2218;51.408;7.208;2022-12-13T00:53:38;99274.63;;;17.74;28.55
4410;BME280;2218;51.408;7.208;2022-12-13T00:56:10;99271.16;;;17.73;28.75
4410;BME280;2218;51.408;7.208;2022-12-13T00:58:38;99271.25;;;17.72;29.05
4410;BME280;2218;51.408;7.208;2022-12-13T01:01:08;99269.66;;;17.69;29.15
4410;BME280;2218;51.408;7.208;2022-12-13T01:03:39;99274.91;;;17.69;28.91
4410;BME280;2218;51.408;7.208;2022-12-13T01:06:09;99268.94;;;17.67;29.23
4410;BME280;2218;51.408;7.208;2022-12-13T01:08:37;99274.19;;;17.67;28.89
4410;BME280;2218;51.408;7.208;2022-12-13T01:11:05;99269.78;;;17.68;29.15
4410;BME280;2218;51.408;7.208;2022-12-13T01:13:33;99264.53;;;17.68;29.07
4410;BME280;2218;51.408;7.208;2022-12-13T01:16:02;99272.53;;;17.66;28.56
4410;BME280;2218;51.408;7.208;2022-12-13T01:18:31;99263.88;;;17.64;28.98
4410;BME280;2218;51.408;7.208;2022-12-13T01:21:00;99263.06;;;17.64;28.97
4410;BME280;2218;51.408;7.208;2022-12-13T01:23:28;99274.50;;;17.63;29.01
4410;BME280;2218;51.408;7.208;2022-12-13T01:25:55;99270.22;;;17.62;29.03
4410;BME280;2218;51.408;7.208;2022-12-13T01:28:23;99281.56;;;17.62;29.11
4410;BME280;2218;51.408;7.208;2022-12-13T01:30:55;99273.78;;;17.61;29.00
4410;BME280;2218;51.408;7.208;2022-12-13T01:33:23;99282.28;;;17.64;28.71
4410;BME280;2218;51.408;7.208;2022-12-13T01:35:52;99282.09;;;17.67;28.68
4410;BME280;2218;51.408;7.208;2022-12-13T01:38:20;99286.38;;;17.68;28.75
4410;BME280;2218;51.408;7.208;2022-12-13T01:40:50;99288.81;;;17.71;28.70
4410;BME280;2218;51.408;7.208;2022-12-13T01:43:24;99285.97;;;17.74;28.69
4410;BME280;2218;51.408;7.208;2022-12-13T01:45:51;99285.78;;;17.77;28.74
4410;BME280;2218;51.408;7.208;2022-12-13T01:48:23;99290.84;;;17.80;28.61
4410;BME280;2218;51.408;7.208;2022-12-13T01:50:59;99293.34;;;17.82;28.89
4410;BME280;2218;51.408;7.208;2022-12-13T01:53:32;99286.09;;;17.86;28.54
4410;BME280;2218;51.408;7.208;2022-12-13T01:56:06;99290.41;;;17.87;28.33
4410;BME280;2218;51.408;7.208;2022-12-13T01:58:37;99292.06;;;17.88;28.38
4410;BME280;2218;51.408;7.208;2022-12-13T02:01:05;99286.63;;;17.91;28.45
4410;BME280;2218;51.408;7.208;2022-12-13T02:03:32;99283.03;;;17.92;28.70
4410;BME280;2218;51.408;7.208;2022-12-13T02:06:07;99275.16;;;17.92;28.17
4410;BME280;2218;51.408;7.208;2022-12-13T02:08:37;99283.75;;;17.94;28.33
4410;BME280;2218;51.408;7.208;2022-12-13T02:11:08;99281.97;;;17.94;28.40
4410;BME280;2218;51.408;7.208;2022-12-13T02:13:36;99282.78;;;17.95;28.00
4410;BME280;2218;51.408;7.208;2022-12-13T02:16:13;99288.91;;;17.95;28.59
4410;BME280;2218;51.408;7.208;2022-12-13T02:19:00;99290.59;;;17.96;28.24
4410;BME280;2218;51.408;7.208;2022-12-13T02:21:40;99289.63;;;17.97;28.18
4410;BME280;2218;51.408;7.208;2022-12-13T02:24:42;99284.25;;;17.99;28.16
4410;BME280;2218;51.408;7.208;2022-12-13T02:27:34;99287.66;;;18.01;28.24
4410;BME280;2218;51.408;7.208;2022-12-13T02:30:24;99285.09;;;17.99;28.16
4410;BME280;2218;51.408;7.208;2022-12-13T02:33:21;99284.06;;;18.02;28.20
4410;BME280;2218;51.408;7.208;2022-12-13T02:36:03;99276.16;;;18.02;28.09
4410;BME280;2218;51.408;7.208;2022-12-13T02:38:39;99277.97;;;18.01;28.22
4410;BME280;2218;51.408;7.208;2022-12-13T02:41:18;99277.84;;;18.03;27.98
4410;BME280;2218;51.408;7.208;2022-12-13T02:43:55;99278.56;;;18.05;27.97
4410;BME280;2218;51.408;7.208;2022-12-13T02:46:29;99272.38;;;18.06;28.13
4410;BME280;2218;51.408;7.208;2022-12-13T02:48:59;99275.94;;;18.05;27.97
4410;BME280;2218;51.408;7.208;2022-12-13T02:51:29;99276.69;;;18.07;28.06
4410;BME280;2218;51.408;7.208;2022-12-13T02:53:56;99276.69;;;18.07;28.01
4410;BME280;2218;51.408;7.208;2022-12-13T02:56:23;99279.31;;;18.07;27.82
4410;BME280;2218;51.408;7.208;2022-12-13T02:58:54;99271.44;;;18.07;28.10
4410;BME280;2218;51.408;7.208;2022-12-13T03:01:42;99264.25;;;18.09;28.03
4410;BME280;2218;51.408;7.208;2022-12-13T03:04:30;99269.50;;;18.09;27.93
4410;BME280;2218;51.408;7.208;2022-12-13T03:07:31;99269.50;;;18.09;27.73
4410;BME280;2218;51.408;7.208;2022-12-13T03:10:05;99271.22;;;18.10;27.80
4410;BME280;2218;51.408;7.208;2022-12-13T03:12:42;99272.91;;;18.11;27.43
4410;BME280;2218;51.408;7.208;2022-12-13T03:15:34;99266.81;;;18.11;27.46
4410;BME280;2218;51.408;7.208;2022-12-13T03:18:11;99264.16;;;18.11;27.62
4410;BME280;2218;51.408;7.208;2022-12-13T03:20:46;99270.16;;;18.13;27.75
4410;BME280;2218;51.408;7.208;2022-12-13T03:23:14;99263.22;;;18.12;27.51
4410;BME280;2218;51.408;7.208;2022-12-13T03:25:43;99266.69;;;18.12;27.71
4410;BME280;2218;51.408;7.208;2022-12-13T03:28:10;99255.19;;;18.13;27.71
4410;BME280;2218;51.408;7.208;2022-12-13T03:30:38;99267.41;;;18.14;27.45
4410;BME280;2218;51.408;7.208;2022-12-13T03:33:06;99266.69;;;18.12;27.78
4410;BME280;2218;51.408;7.208;2022-12-13T03:35:34;99258.59;;;18.15;27.69
4410;BME280;2218;51.408;7.208;2022-12-13T03:38:01;99265.50;;;18.16;27.33
4410;BME280;2218;51.408;7.208;2022-12-13T03:40:31;99262.97;;;18.15;27.38
4410;BME280;2218;51.408;7.208;2022-12-13T03:42:59;99267.41;;;18.14;27.60
4410;BME280;2218;51.408;7.208;2022-12-13T03:45:26;99259.41;;;18.16;27.77
4410;BME280;2218;51.408;7.208;2022-12-13T03:47:53;99266.47;;;18.15;27.49
4410;BME280;2218;51.408;7.208;2022-12-13T03:50:21;99250.56;;;18.17;27.41
4410;BME280;2218;51.408;7.208;2022-12-13T03:52:48;99255.84;;;18.17;27.55
4410;BME280;2218;51.408;7.208;2022-12-13T03:55:17;99256.66;;;18.17;27.25
4410;BME280;2218;51.408;7.208;2022-12-13T03:57:44;99246.16;;;18.17;27.51
4410;BME280;2218;51.408;7.208;2022-12-13T04:00:12;99250.47;;;18.18;27.21
4410;BME280;2218;51.408;7.208;2022-12-13T04:02:41;99250.47;;;18.18;27.25
4410;BME280;2218;51.408;7.208;2022-12-13T04:05:08;99247.81;;;18.18;27.46
4410;BME280;2218;51.408;7.208;2022-12-13T04:07:36;99250.47;;;18.18;27.63
4410;BME280;2218;51.408;7.208;2022-12-13T04:10:04;99248.66;;;18.19;27.21
4410;BME280;2218;51.408;7.208;2022-12-13T04:12:31;99252.03;;;18.21;27.32
4410;BME280;2218;51.408;7.208;2022-12-13T04:15:16;99251.19;;;18.20;27.65
4410;BME280;2218;51.408;7.208;2022-12-13T04:17:43;99253.84;;;18.20;27.32
4410;BME280;2218;51.408;7.208;2022-12-13T04:20:10;99249.50;;;18.19;27.24
4410;BME280;2218;51.408;7.208;2022-12-13T04:22:39;99254.75;;;18.19;27.39
4410;BME280;2218;51.408;7.208;2022-12-13T04:25:06;99255.50;;;18.21;27.47
4410;BME280;2218;51.408;7.208;2022-12-13T04:27:34;99252.88;;;18.21;27.48
4410;BME280;2218;51.408;7.208;2022-12-13T04:30:04;99258.13;;;18.21;27.32
4410;BME280;2218;51.408;7.208;2022-12-13T04:32:31;99252.88;;;18.21;27.32
4410;BME280;2218;51.408;7.208;2022-12-13T04:34:58;99250.97;;;18.23;27.00
4410;BME280;2218;51.408;7.208;2022-12-13T04:37:25;99251.91;;;18.22;27.01
4410;BME280;2218;51.408;7.208;2022-12-13T04:39:53;99252.88;;;18.21;27.03
4410;BME280;2218;51.408;7.208;2022-12-13T04:42:20;99247.63;;;18.21;27.16
4410;BME280;2218;51.408;7.208;2022-12-13T04:44:47;99244.88;;;18.23;27.20
4410;BME280;2218;51.408;7.208;2022-12-13T04:47:15;99249.28;;;18.22;27.46
4410;BME280;2218;51.408;7.208;2022-12-13T04:49:43;99237.81;;;18.23;27.17
4410;BME280;2218;51.408;7.208;2022-12-13T04:52:10;99241.41;;;18.22;27.15
4410;BME280;2218;51.408;7.208;2022-12-13T04:54:37;99229.91;;;18.23;27.24
4410;BME280;2218;51.408;7.208;2022-12-13T04:57:09;99224.66;;;18.23;27.16
4410;BME280;2218;51.408;7.208;2022-12-13T04:59:38;99219.41;;;18.23;27.08
4410;BME280;2218;51.408;7.208;2022-12-13T05:02:06;99233.50;;;18.22;27.12
4410;BME280;2218;51.408;7.208;2022-12-13T05:04:34;99231.72;;;18.23;27.25
4410;BME280;2218;51.408;7.208;2022-12-13T05:07:01;99223.00;;;18.22;26.84
4410;BME280;2218;51.408;7.208;2022-12-13T05:09:29;99236.03;;;18.24;27.42
4410;BME280;2218;51.408;7.208;2022-12-13T05:11:57;99232.44;;;18.25;26.94
4410;BME280;2218;51.408;7.208;2022-12-13T05:14:25;99225.28;;;18.27;26.64
4410;BME280;2218;51.408;7.208;2022-12-13T05:16:52;99218.94;;;18.29;26.87
4410;BME280;2218;51.408;7.208;2022-12-13T05:19:19;99220.53;;;18.32;27.00
4410;BME280;2218;51.408;7.208;2022-12-13T05:21:47;99212.44;;;18.35;26.75
4410;BME280;2218;51.408;7.208;2022-12-13T05:24:14;99217.31;;;18.40;26.72
4410;BME280;2218;51.408;7.208;2022-12-13T05:26:40;99212.69;;;18.43;26.66
4410;BME280;2218;51.408;7.208;2022-12-13T05:29:09;99215.09;;;18.46;26.80
4410;BME280;2218;51.408;7.208;2022-12-13T05:31:37;99217.59;;;18.48;26.59
4410;BME280;2218;51.408;7.208;2022-12-13T05:34:04;99217.41;;;18.51;26.34
4410;BME280;2218;51.408;7.208;2022-12-13T05:36:31;99215.47;;;18.53;26.44
4410;BME280;2218;51.408;7.208;2022-12-13T05:38:58;99221.56;;;18.53;26.36
4410;BME280;2218;51.408;7.208;2022-12-13T05:41:31;99220.53;;;18.56;26.34
4410;BME280;2218;51.408;7.208;2022-12-13T05:43:59;99225.88;;;18.54;26.41
4410;BME280;2218;51.408;7.208;2022-12-13T05:46:25;99216.94;;;18.57;26.58
4410;BME280;2218;51.408;7.208;2022-12-13T05:48:54;99219.44;;;18.58;26.41
4410;BME280;2218;51.408;7.208;2022-12-13T05:51:20;99217.56;;;18.60;26.45
4410;BME280;2218;51.408;7.208;2022-12-13T05:53:47;99220.06;;;18.62;25.97
4410;BME280;2218;51.408;7.208;2022-12-13T05:56:14;99214.78;;;18.62;26.00
4410;BME280;2218;51.408;7.208;2022-12-13T05:58:41;99209.53;;;18.62;25.99
4410;BME280;2218;51.408;7.208;2022-12-13T06:01:11;99211.31;;;18.62;26.06
4410;BME280;2218;51.408;7.208;2022-12-13T06:03:39;99221.50;;;18.66;26.03
4410;BME280;2218;51.408;7.208;2022-12-13T06:06:10;99206.78;;;18.64;26.14
4410;BME280;2218;51.408;7.208;2022-12-13T06:08:38;99209.41;;;18.64;26.11
4410;BME280;2218;51.408;7.208;2022-12-13T06:11:06;99210.88;;;18.68;25.97
4410;BME280;2218;51.408;7.208;2022-12-13T06:13:33;99215.19;;;18.69;25.89
4410;BME280;2218;51.408;7.208;2022-12-13T06:16:03;99214.16;;;18.71;26.14
4410;BME280;2218;51.408;7.208;2022-12-13T06:18:34;99216.66;;;18.73;25.83
4410;BME280;2218;51.408;7.208;2022-12-13T06:21:05;99223.84;;;18.71;25.91
4410;BME280;2218;51.408;7.208;2022-12-13T06:23:34;99219.16;;;18.74;25.94
4410;BME280;2218;51.408;7.208;2022-12-13T06:26:02;99218.31;;;18.74;25.69
4410;BME280;2218;51.408;7.208;2022-12-13T06:28:29;99228.84;;;18.74;25.92
4410;BME280;2218;51.408;7.208;2022-12-13T06:30:59;99223.59;;;18.74;26.04
4410;BME280;2218;51.408;7.208;2022-12-13T06:33:26;99220.88;;;18.75;25.85
4410;BME280;2218;51.408;7.208;2022-12-13T06:35:56;99217.28;;;18.76;25.78
4410;BME280;2218;51.408;7.208;2022-12-13T06:38:23;99217.50;;;18.73;25.70
4410;BME280;2218;51.408;7.208;2022-12-13T06:40:52;99212.97;;;18.75;25.70
4410;BME280;2218;51.408;7.208;2022-12-13T06:43:19;99210.34;;;18.75;26.09
4410;BME280;2218;51.408;7.208;2022-12-13T06:45:47;99217.03;;;18.79;25.79
4410;BME280;2218;51.408;7.208;2022-12-13T06:48:14;99209.25;;;18.78;25.96
4410;BME280;2218;51.408;7.208;2022-12-13T06:50:41;99205.66;;;18.79;25.85
4410;BME280;2218;51.408;7.208;2022-12-13T06:53:08;99210.84;;;18.80;25.99
4410;BME280;2218;51.408;7.208;2022-12-13T06:55:35;99209.63;;;18.84;25.59
4410;BME280;2218;51.408;7.208;2022-12-13T06:58:03;99203.56;;;18.95;24.94
4410;BME280;2218;51.408;7.208;2022-12-13T07:00:30;99185.84;;;18.97;25.28
4410;BME280;2218;51.408;7.208;2022-12-13T07:02:57;99202.75;;;19.06;24.87
4410;BME280;2218;51.408;7.208;2022-12-13T07:05:24;99208.50;;;19.11;24.72
4410;BME280;2218;51.408;7.208;2022-12-13T07:07:52;99213.91;;;19.21;24.79
4410;BME280;2218;51.408;7.208;2022-12-13T07:10:20;99217.63;;;19.29;24.54
4410;BME280;2218;51.408;7.208;2022-12-13T07:12:47;99220.38;;;19.39;24.63
4410;BME280;2218;51.408;7.208;2022-12-13T07:15:15;99217.38;;;19.44;24.33
4410;BME280;2218;51.408;7.208;2022-12-13T07:17:43;99218.00;;;19.47;24.33
4410;BME280;2218;51.408;7.208;2022-12-13T07:20:11;99218.72;;;19.49;24.24
4410;BME280;2218;51.408;7.208;2022-12-13T07:22:39;99215.47;;;19.46;24.82
4410;BME280;2218;51.408;7.208;2022-12-13T07:25:07;99216.66;;;19.53;24.17
4410;BME280;2218;51.408;7.208;2022-12-13T07:27:35;99209.16;;;19.59;24.08
4410;BME280;2218;51.408;7.208;2022-12-13T07:30:03;99217.78;;;19.61;24.11
4410;BME280;2218;51.408;7.208;2022-12-13T07:32:32;99217.66;;;19.63;23.77
4410;BME280;2218;51.408;7.208;2022-12-13T07:34:59;99187.69;;;19.64;23.62
4410;BME280;2218;51.408;7.208;2022-12-13T07:37:25;99182.41;;;19.64;23.78
4410;BME280;2218;51.408;7.208;2022-12-13T07:39:52;99190.31;;;19.64;23.96
4410;BME280;2218;51.408;7.208;2022-12-13T07:42:19;99220.53;;;19.71;23.85
4410;BME280;2218;51.408;7.208;2022-12-13T07:44:46;99214.16;;;19.74;24.11
4410;BME280;2218;51.408;7.208;2022-12-13T07:47:13;99215.75;;;19.65;23.87
4410;BME280;2218;51.408;7.208;2022-12-13T07:49:41;99219.31;;;19.64;24.09
4410;BME280;2218;51.408;7.208;2022-12-13T07:52:10;99228.19;;;19.63;24.19
4410;BME280;2218;51.408;7.208;2022-12-13T07:54:37;99228.03;;;19.53;24.69
4410;BME280;2218;51.408;7.208;2022-12-13T07:57:03;99224.47;;;19.54;24.30
4410;BME280;2218;51.408;7.208;2022-12-13T07:59:31;99220.28;;;19.52;24.46
4410;BME280;2218;51.408;7.208;2022-12-13T08:01:57;99225.75;;;19.49;24.62
4410;BME280;2218;51.408;7.208;2022-12-13T08:04:25;99232.38;;;19.54;24.59
4410;BME280;2218;51.408;7.208;2022-12-13T08:06:53;99226.97;;;19.56;24.70
4410;BME280;2218;51.408;7.208;2022-12-13T08:09:20;99234.16;;;19.54;24.80
4410;BME280;2218;51.408;7.208;2022-12-13T08:11:48;99239.41;;;19.54;24.78
4410;BME280;2218;51.408;7.208;2022-12-13T08:14:15;99239.41;;;19.54;24.77
4410;BME280;2218;51.408;7.208;2022-12-13T08:16:42;99248.06;;;19.56;24.79
4410;BME280;2218;51.408;7.208;2022-12-13T08:19:09;99240.28;;;19.54;25.08
4410;BME280;2218;51.408;7.208;2022-12-13T08:21:39;99244.69;;;19.54;25.16
4410;BME280;2218;51.408;7.208;2022-12-13T08:24:08;99234.16;;;19.54;25.13
4410;BME280;2218;51.408;7.208;2022-12-13T08:26:34;99232.38;;;19.54;25.36
4410;BME280;2218;51.408;7.208;2022-12-13T08:29:01;99239.41;;;19.54;25.24
4410;BME280;2218;51.408;7.208;2022-12-13T08:31:29;99232.47;;;19.53;25.32
4410;BME280;2218;51.408;7.208;2022-12-13T08:33:56;99239.41;;;19.54;25.26
4410;BME280;2218;51.408;7.208;2022-12-13T08:36:23;99237.75;;;19.53;25.35
4410;BME280;2218;51.408;7.208;2022-12-13T08:38:53;99243.75;;;19.55;25.48
4410;BME280;2218;51.408;7.208;2022-12-13T08:41:22;99241.13;;;19.55;25.41
4410;BME280;2218;51.408;7.208;2022-12-13T08:43:49;99238.50;;;19.55;25.49
4410;BME280;2218;51.408;7.208;2022-12-13T08:46:16;99243.03;;;19.53;25.66
4410;BME280;2218;51.408;7.208;2022-12-13T08:48:43;99240.28;;;19.54;25.71
4410;BME280;2218;51.408;7.208;2022-12-13T08:51:13;99247.22;;;19.55;25.65
4410;BME280;2218;51.408;7.208;2022-12-13T08:53:42;99249.03;;;19.55;25.90
4410;BME280;2218;51.408;7.208;2022-12-13T08:56:10;99247.34;;;19.54;26.11
4410;BME280;2218;51.408;7.208;2022-12-13T08:58:39;99247.34;;;19.54;26.07
4410;BME280;2218;51.408;7.208;2022-12-13T09:01:06;99241.13;;;19.55;25.74
4410;BME280;2218;51.408;7.208;2022-12-13T09:03:33;99241.97;;;19.55;26.00
4410;BME280;2218;51.408;7.208;2022-12-13T09:06:06;99251.66;;;19.55;25.96
4410;BME280;2218;51.408;7.208;2022-12-13T09:08:33;99248.06;;;19.56;25.71
4410;BME280;2218;51.408;7.208;2022-12-13T09:11:01;99249.75;;;19.57;26.05
4410;BME280;2218;51.408;7.208;2022-12-13T09:13:29;99244.47;;;19.57;25.81
4410;BME280;2218;51.408;7.208;2022-12-13T09:15:58;99244.59;;;19.55;25.89
4410;BME280;2218;51.408;7.208;2022-12-13T09:18:28;99247.81;;;19.59;25.71
4410;BME280;2218;51.408;7.208;2022-12-13T09:20:55;99255.97;;;19.56;25.96
4410;BME280;2218;51.408;7.208;2022-12-13T09:23:22;99248.78;;;19.58;25.83
4410;BME280;2218;51.408;7.208;2022-12-13T09:25:52;99252.75;;;19.63;25.78
4410;BME280;2218;51.408;7.208;2022-12-13T09:28:21;99255.16;;;19.67;25.92
4410;BME280;2218;51.408;7.208;2022-12-13T09:30:49;99254.09;;;19.69;25.85
4410;BME280;2218;51.408;7.208;2022-12-13T09:33:17;99247.97;;;19.69;25.83
4410;BME280;2218;51.408;7.208;2022-12-13T09:35:44;99250.72;;;19.67;25.62
4410;BME280;2218;51.408;7.208;2022-12-13T09:38:11;99247.97;;;19.69;25.73
4410;BME280;2218;51.408;7.208;2022-12-13T09:40:41;99249.66;;;19.70;25.43
4410;BME280;2218;51.408;7.208;2022-12-13T09:43:18;99253.38;;;19.67;25.53
4410;BME280;2218;51.408;7.208;2022-12-13T09:45:48;99250.84;;;19.66;25.45
4410;BME280;2218;51.408;7.208;2022-12-13T09:48:20;99254.09;;;19.69;25.08
4410;BME280;2218;51.408;7.208;2022-12-13T09:50:48;99257.66;;;19.68;25.02
4410;BME280;2218;51.408;7.208;2022-12-13T09:53:17;99261.50;;;19.64;25.25
4410;BME280;2218;51.408;7.208;2022-12-13T09:55:48;99254.31;;;19.66;25.36
4410;BME280;2218;51.408;7.208;2022-12-13T09:58:20;99255.16;;;19.67;25.38
4410;BME280;2218;51.408;7.208;2022-12-13T10:00:52;99243.66;;;19.68;25.56
4410;BME280;2218;51.408;7.208;2022-12-13T10:03:23;99232.28;;;19.67;25.68
4410;BME280;2218;51.408;7.208;2022-12-13T10:05:57;99233.25;;;19.66;25.82
4410;BME280;2218;51.408;7.208;2022-12-13T10:08:31;99225.34;;;19.66;25.80
4410;BME280;2218;51.408;7.208;2022-12-13T10:10:58;99222.69;;;19.66;25.72
4410;BME280;2218;51.408;7.208;2022-12-13T10:13:36;99230.59;;;19.66;25.97
4410;BME280;2218;51.408;7.208;2022-12-13T10:16:13;99230.47;;;19.68;25.83
4410;BME280;2218;51.408;7.208;2022-12-13T10:18:44;99240.19;;;19.67;26.21
4410;BME280;2218;51.408;7.208;2022-12-13T10:21:15;99239.22;;;19.68;26.16
4410;BME280;2218;51.408;7.208;2022-12-13T10:23:44;99236.59;;;19.68;26.09
4410;BME280;2218;51.408;7.208;2022-12-13T10:26:13;99239.34;;;19.67;26.13
4410;BME280;2218;51.408;7.208;2022-12-13T10:28:41;99228.66;;;19.68;26.17
4410;BME280;2218;51.408;7.208;2022-12-13T10:31:16;99218.25;;;19.67;25.98
4410;BME280;2218;51.408;7.208;2022-12-13T10:33:53;99216.47;;;19.67;26.10
4410;BME280;2218;51.408;7.208;2022-12-13T10:36:33;99217.28;;;19.68;26.00
4410;BME280;2218;51.408;7.208;2022-12-13T10:39:01;99212.03;;;19.68;25.89
4410;BME280;2218;51.408;7.208;2022-12-13T10:41:36;99215.50;;;19.68;25.85
4410;BME280;2218;51.408;7.208;2022-12-13T10:44:23;99216.47;;;19.67;25.88
4410;BME280;2218;51.408;7.208;2022-12-13T10:47:12;99207.59;;;19.68;25.94
4410;BME280;2218;51.408;7.208;2022-12-13T10:49:50;99208.56;;;19.67;26.09
4410;BME280;2218;51.408;7.208;2022-12-13T10:52:27;99199.69;;;19.68;25.81
4410;BME280;2218;51.408;7.208;2022-12-13T10:54:56;99199.69;;;19.68;26.01
4410;BME280;2218;51.408;7.208;2022-12-13T10:57:24;99193.56;;;19.68;25.94
4410;BME280;2218;51.408;7.208;2022-12-13T10:59:52;99190.94;;;19.68;25.97
4410;BME280;2218;51.408;7.208;2022-12-13T11:02:33;99189.13;;;19.68;25.71
4410;BME280;2218;51.408;7.208;2022-12-13T11:05:24;99190.84;;;19.69;26.05
4410;BME280;2218;51.408;7.208;2022-12-13T11:07:51;99190.09;;;19.67;25.97
4410;BME280;2218;51.408;7.208;2022-12-13T11:10:24;99187.47;;;19.67;26.19
4410;BME280;2218;51.408;7.208;2022-12-13T11:12:59;99181.34;;;19.67;26.00
4410;BME280;2218;51.408;7.208;2022-12-13T11:15:28;99174.16;;;19.69;25.91
4410;BME280;2218;51.408;7.208;2022-12-13T11:17:59;99173.31;;;19.68;25.87
4410;BME280;2218;51.408;7.208;2022-12-13T11:20:32;99168.03;;;19.68;26.01
4410;BME280;2218;51.408;7.208;2022-12-13T11:23:04;99160.25;;;19.67;25.82
4410;BME280;2218;51.408;7.208;2022-12-13T11:25:38;99155.81;;;19.67;26.01
4410;BME280;2218;51.408;7.208;2022-12-13T11:28:47;99158.34;;;19.69;25.73
4410;BME280;2218;51.408;7.208;2022-12-13T11:31:27;99153.94;;;19.69;25.84
4410;BME280;2218;51.408;7.208;2022-12-13T11:34:10;99151.38;;;19.68;25.94
4410;BME280;2218;51.408;7.208;2022-12-13T11:36:49;99144.31;;;19.68;26.08
4410;BME280;2218;51.408;7.208;2022-12-13T11:39:25;99142.50;;;19.69;26.03
4410;BME280;2218;51.408;7.208;2022-12-13T11:42:00;99141.69;;;19.68;25.85
4410;BME280;2218;51.408;7.208;2022-12-13T11:44:41;99138.94;;;19.70;26.16
4410;BME280;2218;51.408;7.208;2022-12-13T11:47:17;99142.66;;;19.67;26.33
4410;BME280;2218;51.408;7.208;2022-12-13T11:49:48;99136.41;;;19.68;26.50
4410;BME280;2218;51.408;7.208;2022-12-13T11:52:24;99134.59;;;19.69;26.46
4410;BME280;2218;51.408;7.208;2022-12-13T11:54:58;99141.44;;;19.71;26.48
4410;BME280;2218;51.408;7.208;2022-12-13T11:57:38;99128.28;;;19.71;26.63
4410;BME280;2218;51.408;7.208;2022-12-13T12:00:28;99126.47;;;19.72;26.54
4410;BME280;2218;51.408;7.208;2022-12-13T12:03:09;99135.22;;;19.72;26.62
4410;BME280;2218;51.408;7.208;2022-12-13T12:05:46;99136.03;;;19.73;26.81
4410;BME280;2218;51.408;7.208;2022-12-13T12:08:24;99126.59;;;19.70;26.71
4410;BME280;2218;51.408;7.208;2022-12-13T12:11:03;99131.75;;;19.72;26.72
4410;BME280;2218;51.408;7.208;2022-12-13T12:13:39;99131.88;;;19.70;26.84
4410;BME280;2218;51.408;7.208;2022-12-13T12:16:20;99130.91;;;19.71;27.01
4410;BME280;2218;51.408;7.208;2022-12-13T12:18:49;99137.13;;;19.70;26.96
4410;BME280;2218;51.408;7.208;2022-12-13T12:21:31;99126.47;;;19.72;27.07
4410;BME280;2218;51.408;7.208;2022-12-13T12:24:17;99126.47;;;19.72;26.81
4410;BME280;2218;51.408;7.208;2022-12-13T12:27:02;99122.16;;;19.71;27.04
4410;BME280;2218;51.408;7.208;2022-12-13T12:30:06;99123.84;;;19.72;27.20
4410;BME280;2218;51.408;7.208;2022-12-13T12:32:46;99126.34;;;19.73;27.03
4410;BME280;2218;51.408;7.208;2022-12-13T12:35:32;99113.97;;;19.74;27.13
4410;BME280;2218;51.408;7.208;2022-12-13T12:38:19;99118.44;;;19.73;26.96
4410;BME280;2218;51.408;7.208;2022-12-13T12:41:16;99113.97;;;19.74;26.68
4410;BME280;2218;51.408;7.208;2022-12-13T12:43:47;99110.50;;;19.73;27.00
4410;BME280;2218;51.408;7.208;2022-12-13T12:46:39;99115.78;;;19.73;27.19
4410;BME280;2218;51.408;7.208;2022-12-13T12:52:34;99113.88;;;19.75;26.96
4410;BME280;2218;51.408;7.208;2022-12-13T12:55:17;99109.56;;;19.74;27.02
4410;BME280;2218;51.408;7.208;2022-12-13T12:57:56;99108.72;;;19.74;27.29
4410;BME280;2218;51.408;7.208;2022-12-13T13:00:40;99102.50;;;19.75;27.14
4410;BME280;2218;51.408;7.208;2022-12-13T13:03:19;99095.44;;;19.75;27.30
4410;BME280;2218;51.408;7.208;2022-12-13T13:05:52;99106.81;;;19.76;27.15
4410;BME280;2218;51.408;7.208;2022-12-13T13:08:27;99103.22;;;19.77;27.34
4410;BME280;2218;51.408;7.208;2022-12-13T13:10:57;99105.00;;;19.76;27.22
4410;BME280;2218;51.408;7.208;2022-12-13T13:13:44;99104.88;;;19.78;27.19
4410;BME280;2218;51.408;7.208;2022-12-13T13:16:32;99097.09;;;19.76;27.29
4410;BME280;2218;51.408;7.208;2022-12-13T13:19:01;99098.75;;;19.77;27.28
4410;BME280;2218;51.408;7.208;2022-12-13T13:21:39;99096.13;;;19.77;26.72
4410;BME280;2218;51.408;7.208;2022-12-13T13:24:19;99100.44;;;19.78;26.90
4410;BME280;2218;51.408;7.208;2022-12-13T13:26:49;99096.84;;;19.79;27.14
4410;BME280;2218;51.408;7.208;2022-12-13T13:29:33;99095.06;;;19.80;27.03
4410;BME280;2218;51.408;7.208;2022-12-13T13:32:08;99099.09;;;19.84;27.18
4410;BME280;2218;51.408;7.208;2022-12-13T13:34:49;99093.72;;;19.85;26.94
4410;BME280;2218;51.408;7.208;2022-12-13T13:37:45;99097.19;;;19.86;27.08
4410;BME280;2218;51.408;7.208;2022-12-13T13:40:30;99098.72;;;19.88;26.92
4410;BME280;2218;51.408;7.208;2022-12-13T13:43:13;99095.97;;;19.90;27.01
4410;BME280;2218;51.408;7.208;2022-12-13T13:45:58;99090.72;;;19.90;27.00
4410;BME280;2218;51.408;7.208;2022-12-13T13:48:58;99097.78;;;19.90;27.16
4410;BME280;2218;51.408;7.208;2022-12-13T13:52:06;99090.44;;;19.93;27.05